Time;durP1;ratioP1;P1;durP2;ratioP2;P2;SDS_P1;SDS_P2;PMS_P1;PMS_P2;Temp;Humidity;BMP_temperature;BMP_pressure;BME280_temperature;BME280_humidity;BME280_pressure;Samples;Min_cycle;Max_cycle;Signal;HPM_P1;HPM_P2
2024/03/03 00:02:33;;;;;;;106.72;44.65;;;;;;;;;;4978485;28;20866;-61
2024/03/03 00:05:27;;;;;;;113.82;45.20;;;;;;;;;;4965918;28;20119;-61
2024/03/03 00:08:23;;;;;;;103.00;45.65;;;;;;;;;;4966878;28;20104;-61
2024/03/03 00:11:08;;;;;;;100.03;44.47;;;;;;;;;;4971922;28;20077;-61
2024/03/03 00:14:02;;;;;;;105.85;45.50;;;;;;;;;;4972774;28;20065;-62
2024/03/03 00:16:56;;;;;;;119.00;45.60;;;;;;;;;;4978140;28;20062;-65
2024/03/03 00:19:37;;;;;;;99.28;43.58;;;;;;;;;;4995006;28;20576;-65
2024/03/03 00:22:11;;;;;;;103.22;45.95;;;;;;;;;;4994916;28;20156;-65
2024/03/03 00:24:38;;;;;;;103.38;45.10;;;;;;;;;;4994324;28;20128;-65
2024/03/03 00:27:12;;;;;;;106.28;47.08;;;;;;;;;;4991162;28;20062;-64
2024/03/03 00:29:39;;;;;;;112.63;46.67;;;;;;;;;;4996554;28;20113;-63
2024/03/03 00:32:06;;;;;;;113.80;46.95;;;;;;;;;;4994708;28;20054;-63
2024/03/03 00:34:43;;;;;;;109.57;45.30;;;;;;;;;;4996821;28;20062;-63
2024/03/03 00:37:10;;;;;;;112.68;48.00;;;;;;;;;;4995777;28;20660;-63
2024/03/03 00:39:45;;;;;;;109.47;45.90;;;;;;;;;;4997704;28;20112;-63
2024/03/03 00:42:13;;;;;;;106.68;45.25;;;;;;;;;;4992893;28;20061;-63
2024/03/03 00:44:40;;;;;;;109.05;46.50;;;;;;;;;;4998771;28;20505;-65
2024/03/03 00:47:14;;;;;;;104.63;46.80;;;;;;;;;;4995520;28;20058;-64
2024/03/03 00:49:41;;;;;;;102.60;45.25;;;;;;;;;;4991596;28;20058;-64
2024/03/03 00:52:08;;;;;;;109.10;46.20;;;;;;;;;;4994082;28;20108;-63
2024/03/03 00:54:42;;;;;;;107.25;46.03;;;;;;;;;;4993387;28;20089;-50
2024/03/03 00:57:09;;;;;;;107.45;45.88;;;;;;;;;;4993584;28;20081;-48
2024/03/03 00:59:43;;;;;;;99.57;42.92;;;;;;;;;;4995085;28;20042;-45
2024/03/03 01:02:10;;;;;;;103.30;45.40;;;;;;;;;;4995156;28;20104;-48
2024/03/03 01:04:37;;;;;;;101.32;41.72;;;;;;;;;;4994812;28;20121;-50
2024/03/03 01:07:11;;;;;;;103.40;44.45;;;;;;;;;;5012352;28;20121;-50
2024/03/03 01:09:38;;;;;;;105.35;45.42;;;;;;;;;;5015447;28;20404;-45
2024/03/03 01:12:32;;;;;;;93.90;38.60;;;;;;;;;;5010626;28;20132;-65
2024/03/03 01:15:19;;;;;;;100.85;43.05;;;;;;;;;;5012156;28;20066;-65
2024/03/03 01:18:19;;;;;;;109.10;45.28;;;;;;;;;;5015221;28;20058;-64
2024/03/03 01:21:07;;;;;;;100.18;40.95;;;;;;;;;;5013607;28;20089;-63
2024/03/03 01:24:01;;;;;;;100.38;44.22;;;;;;;;;;5013432;28;20498;-58
2024/03/03 01:26:48;;;;;;;112.65;45.00;;;;;;;;;;5013037;28;20088;-56
2024/03/03 01:29:42;;;;;;;100.65;46.67;;;;;;;;;;5018916;28;20061;-59
2024/03/03 01:32:29;;;;;;;114.18;47.55;;;;;;;;;;5015923;28;20050;-58
2024/03/03 01:35:23;;;;;;;102.80;46.10;;;;;;;;;;5015616;28;20072;-58
2024/03/03 01:38:10;;;;;;;107.30;46.80;;;;;;;;;;5018615;28;20061;-56
2024/03/03 01:41:04;;;;;;;105.22;47.45;;;;;;;;;;5015059;28;20057;-61
2024/03/03 01:43:51;;;;;;;104.18;46.33;;;;;;;;;;5014882;28;20111;-61
2024/03/03 01:46:45;;;;;;;103.90;47.45;;;;;;;;;;5014772;28;20053;-62
2024/03/03 01:49:35;;;;;;;104.38;47.90;;;;;;;;;;5015454;28;20057;-61
2024/03/03 01:52:29;;;;;;;99.10;45.90;;;;;;;;;;5016967;28;20051;-59
2024/03/03 01:55:21;;;;;;;104.03;46.40;;;;;;;;;;5018704;28;20091;-57
2024/03/03 01:58:16;;;;;;;93.78;40.45;;;;;;;;;;5019416;28;20049;-58
2024/03/03 02:01:03;;;;;;;106.60;45.63;;;;;;;;;;5014764;28;20501;-57
2024/03/03 02:03:58;;;;;;;107.68;47.42;;;;;;;;;;5016417;28;20077;-57
2024/03/03 02:06:46;;;;;;;107.97;44.75;;;;;;;;;;5016158;28;20112;-54
2024/03/03 02:09:42;;;;;;;101.47;44.35;;;;;;;;;;5015368;28;20064;-61
2024/03/03 02:12:29;;;;;;;108.78;43.97;;;;;;;;;;5014980;28;20506;-62
2024/03/03 02:15:23;;;;;;;108.45;46.78;;;;;;;;;;5015829;28;20097;-61
2024/03/03 02:18:17;;;;;;;110.63;45.33;;;;;;;;;;5015782;28;20517;-62
2024/03/03 02:21:11;;;;;;;110.75;44.33;;;;;;;;;;5019259;28;20057;-61
2024/03/03 02:23:58;;;;;;;104.93;44.47;;;;;;;;;;5018743;28;20492;-55
2024/03/03 02:26:52;;;;;;;101.05;37.63;;;;;;;;;;5019541;28;20171;-56
2024/03/03 02:29:46;;;;;;;117.55;45.92;;;;;;;;;;5019333;28;20479;-55
2024/03/03 02:32:40;;;;;;;118.78;46.63;;;;;;;;;;5012334;28;20050;-56
2024/03/03 02:35:27;;;;;;;115.00;44.00;;;;;;;;;;5016206;28;20061;-54
2024/03/03 02:38:21;;;;;;;116.68;46.53;;;;;;;;;;5019232;28;20519;-66
2024/03/03 02:41:15;;;;;;;105.22;45.53;;;;;;;;;;5014142;28;20056;-63
2024/03/03 02:44:09;;;;;;;106.30;44.88;;;;;;;;;;5015872;28;20046;-64
2024/03/03 02:47:02;;;;;;;120.35;47.50;;;;;;;;;;5012184;28;20463;-65
2024/03/03 02:49:56;;;;;;;116.10;46.95;;;;;;;;;;5014954;28;20053;-55
2024/03/03 02:52:43;;;;;;;123.25;50.22;;;;;;;;;;5016139;28;20089;-54
2024/03/03 02:55:37;;;;;;;123.35;47.85;;;;;;;;;;5016976;28;20054;-50
2024/03/03 02:58:24;;;;;;;122.10;49.05;;;;;;;;;;5015387;28;20647;-55
2024/03/03 03:01:18;;;;;;;114.25;47.30;;;;;;;;;;5015520;28;21038;-54
2024/03/03 03:04:05;;;;;;;122.70;47.85;;;;;;;;;;5014898;28;20061;-57
2024/03/03 03:06:59;;;;;;;114.97;44.15;;;;;;;;;;5015020;28;20166;-62
2024/03/03 03:09:46;;;;;;;114.32;48.08;;;;;;;;;;5013777;28;20123;-62
2024/03/03 03:12:40;;;;;;;131.43;51.17;;;;;;;;;;5011497;28;20041;-62
2024/03/03 03:15:28;;;;;;;126.75;50.95;;;;;;;;;;5014615;28;20057;-62
2024/03/03 03:18:28;;;;;;;111.82;47.47;;;;;;;;;;5015032;28;20139;-57
2024/03/03 03:21:15;;;;;;;123.03;50.35;;;;;;;;;;5013505;28;20054;-51
2024/03/03 03:24:09;;;;;;;105.85;45.28;;;;;;;;;;5018889;28;20649;-55
2024/03/03 03:26:56;;;;;;;114.75;48.88;;;;;;;;;;5012854;28;20052;-51
2024/03/03 03:29:50;;;;;;;109.00;47.03;;;;;;;;;;5013955;28;20497;-54
2024/03/03 03:32:37;;;;;;;109.10;47.75;;;;;;;;;;5013963;28;20417;-55
2024/03/03 03:35:31;;;;;;;102.57;46.45;;;;;;;;;;5015954;28;20068;-65
2024/03/03 03:38:25;;;;;;;101.82;45.83;;;;;;;;;;5016111;28;20478;-65
2024/03/03 03:41:20;;;;;;;115.10;47.88;;;;;;;;;;5010540;28;20139;-65
2024/03/03 03:44:06;;;;;;;108.18;45.35;;;;;;;;;;5011725;28;20053;-59
2024/03/03 03:47:00;;;;;;;110.30;45.28;;;;;;;;;;5013682;28;20055;-61
2024/03/03 03:49:47;;;;;;;103.82;44.53;;;;;;;;;;5012637;28;20505;-58
2024/03/03 03:52:41;;;;;;;102.28;44.72;;;;;;;;;;5015485;28;20042;-59
2024/03/03 03:55:28;;;;;;;103.70;44.03;;;;;;;;;;5014054;28;20053;-57
2024/03/03 03:58:22;;;;;;;98.32;43.22;;;;;;;;;;5010560;28;20165;-57
2024/03/03 04:01:09;;;;;;;106.28;45.80;;;;;;;;;;5010491;28;20475;-58
2024/03/03 04:04:04;;;;;;;96.10;43.97;;;;;;;;;;5017520;28;20723;-62
2024/03/03 04:06:50;;;;;;;97.40;44.13;;;;;;;;;;5010938;28;20155;-61
2024/03/03 04:09:44;;;;;;;98.47;44.70;;;;;;;;;;5013667;28;20061;-62
2024/03/03 04:12:31;;;;;;;102.22;44.00;;;;;;;;;;5011392;28;20045;-48
2024/03/03 04:15:25;;;;;;;100.13;44.33;;;;;;;;;;5011516;28;20052;-62
2024/03/03 04:18:18;;;;;;;103.10;44.75;;;;;;;;;;5013419;28;20053;-63
2024/03/03 04:21:13;;;;;;;104.00;45.35;;;;;;;;;;5012965;28;20599;-63
2024/03/03 04:23:59;;;;;;;108.32;47.15;;;;;;;;;;5012846;28;20064;-63
2024/03/03 04:26:53;;;;;;;108.03;45.58;;;;;;;;;;5012456;28;20061;-63
2024/03/03 04:29:40;;;;;;;109.28;46.17;;;;;;;;;;5016447;28;20120;-63
2024/03/03 04:32:34;;;;;;;107.78;45.58;;;;;;;;;;5014231;28;20139;-48
2024/03/03 04:35:28;;;;;;;107.63;44.20;;;;;;;;;;5014513;28;20049;-48
2024/03/03 04:38:15;;;;;;;109.88;46.30;;;;;;;;;;5011271;28;20046;-46
2024/03/03 04:41:16;;;;;;;110.38;47.53;;;;;;;;;;5013716;28;20545;-64
2024/03/03 04:44:03;;;;;;;116.97;47.05;;;;;;;;;;5015343;28;20057;-52
2024/03/03 04:46:57;;;;;;;119.10;46.55;;;;;;;;;;5011817;28;20758;-64
2024/03/03 04:49:45;;;;;;;115.63;46.13;;;;;;;;;;5010149;28;20056;-64
2024/03/03 04:52:38;;;;;;;112.63;47.63;;;;;;;;;;5013484;28;20049;-64
2024/03/03 04:55:25;;;;;;;114.60;47.15;;;;;;;;;;5011124;28;20114;-64
2024/03/03 04:58:19;;;;;;;109.60;45.42;;;;;;;;;;5011420;28;20053;-64
2024/03/03 05:01:06;;;;;;;117.90;48.83;;;;;;;;;;5015442;28;20080;-62
2024/03/03 05:04:00;;;;;;;120.53;47.15;;;;;;;;;;5015656;28;20493;-61
2024/03/03 05:06:48;;;;;;;118.25;46.03;;;;;;;;;;5018031;28;20085;-61
2024/03/03 05:09:41;;;;;;;140.35;51.65;;;;;;;;;;5018875;28;20081;-57
2024/03/03 05:12:29;;;;;;;125.18;45.60;;;;;;;;;;5016622;28;20427;-64
2024/03/03 05:15:23;;;;;;;126.28;47.55;;;;;;;;;;5018406;28;20065;-63
2024/03/03 05:18:18;;;;;;;150.30;51.05;;;;;;;;;;5015622;28;20552;-63
2024/03/03 05:21:13;;;;;;;140.77;51.78;;;;;;;;;;5015800;28;20226;-62
2024/03/03 05:24:06;;;;;;;140.93;49.30;;;;;;;;;;5016294;28;20053;-63
2024/03/03 05:27:00;;;;;;;136.45;45.35;;;;;;;;;;5017248;28;20097;-63
2024/03/03 05:29:47;;;;;;;153.02;52.15;;;;;;;;;;5018756;28;20054;-64
2024/03/03 05:32:41;;;;;;;150.40;51.10;;;;;;;;;;5013182;28;22221;-65
2024/03/03 05:35:28;;;;;;;151.93;50.08;;;;;;;;;;5016558;28;20046;-65
2024/03/03 05:38:22;;;;;;;156.98;53.22;;;;;;;;;;5018562;28;20303;-50
2024/03/03 05:41:16;;;;;;;158.60;51.20;;;;;;;;;;5013719;28;20096;-63
2024/03/03 05:44:10;;;;;;;155.13;52.22;;;;;;;;;;5016835;28;20053;-63
2024/03/03 05:47:05;;;;;;;169.43;52.75;;;;;;;;;;5016324;28;20104;-63
2024/03/03 05:49:51;;;;;;;162.68;52.08;;;;;;;;;;5015206;28;20065;-64
2024/03/03 05:52:45;;;;;;;175.65;54.92;;;;;;;;;;5015888;28;20056;-63
2024/03/03 05:55:33;;;;;;;178.05;54.97;;;;;;;;;;5014330;28;20050;-63
2024/03/03 05:58:26;;;;;;;171.75;53.35;;;;;;;;;;5014373;28;20207;-58
2024/03/03 06:01:13;;;;;;;170.63;53.67;;;;;;;;;;5014575;28;20463;-58
2024/03/03 06:04:08;;;;;;;163.43;47.75;;;;;;;;;;5015099;28;20124;-59
2024/03/03 06:06:54;;;;;;;173.23;55.13;;;;;;;;;;5012953;28;20053;-66
2024/03/03 06:09:48;;;;;;;166.82;55.30;;;;;;;;;;5016517;28;20058;-49
2024/03/03 06:12:35;;;;;;;177.15;51.95;;;;;;;;;;5016692;28;20065;-48
2024/03/03 06:15:29;;;;;;;190.00;55.58;;;;;;;;;;5015386;28;20046;-47
2024/03/03 06:18:30;;;;;;;189.18;54.88;;;;;;;;;;5015557;28;20053;-51
2024/03/03 06:21:17;;;;;;;162.68;50.55;;;;;;;;;;5014568;28;20084;-52
2024/03/03 06:24:11;;;;;;;135.43;41.67;;;;;;;;;;5016968;28;20241;-48
2024/03/03 06:26:58;;;;;;;170.93;52.80;;;;;;;;;;5011869;28;20088;-64
2024/03/03 06:29:52;;;;;;;164.10;49.75;;;;;;;;;;5017367;28;20049;-63
2024/03/03 06:32:39;;;;;;;157.20;50.20;;;;;;;;;;5012962;28;20061;-63
2024/03/03 06:35:33;;;;;;;135.00;43.30;;;;;;;;;;5014058;28;20073;-59
2024/03/03 06:38:20;;;;;;;145.82;49.17;;;;;;;;;;5015378;28;20045;-63
2024/03/03 06:41:14;;;;;;;138.40;43.67;;;;;;;;;;5018662;28;20064;-64
2024/03/03 06:44:08;;;;;;;141.57;50.22;;;;;;;;;;5015933;28;20055;-64
2024/03/03 06:47:03;;;;;;;143.07;45.28;;;;;;;;;;5017492;28;20128;-64
2024/03/03 06:49:52;;;;;;;141.15;47.75;;;;;;;;;;5016280;28;20494;-63
2024/03/03 06:52:45;;;;;;;134.60;50.17;;;;;;;;;;5010912;28;20057;-63
2024/03/03 06:55:39;;;;;;;135.93;47.10;;;;;;;;;;5014449;28;20735;-64
2024/03/03 06:58:26;;;;;;;130.63;46.80;;;;;;;;;;5015116;28;20566;-64
2024/03/03 07:01:20;;;;;;;121.68;40.67;;;;;;;;;;5011979;28;20444;-63
2024/03/03 07:04:13;;;;;;;107.78;41.60;;;;;;;;;;5009415;28;20623;-53
2024/03/03 07:07:02;;;;;;;123.30;46.53;;;;;;;;;;5011848;28;20064;-62
2024/03/03 07:09:48;;;;;;;120.55;45.67;;;;;;;;;;5016361;28;20512;-62
2024/03/03 07:12:42;;;;;;;111.00;42.58;;;;;;;;;;5016084;28;21042;-63
2024/03/03 07:15:29;;;;;;;102.10;43.45;;;;;;;;;;5012971;28;20173;-64
2024/03/03 07:18:33;;;;;;;98.20;40.22;;;;;;;;;;5016104;28;20056;-62
2024/03/03 07:21:20;;;;;;;105.40;42.55;;;;;;;;;;5014171;28;20135;-62
2024/03/03 07:24:14;;;;;;;98.50;41.42;;;;;;;;;;5016041;28;20057;-58
2024/03/03 07:27:03;;;;;;;105.22;44.03;;;;;;;;;;5012736;28;20184;-58
2024/03/03 07:29:57;;;;;;;93.47;42.33;;;;;;;;;;5011875;28;20610;-58
2024/03/03 07:32:49;;;;;;;94.53;41.60;;;;;;;;;;5016134;28;20041;-58
2024/03/03 07:35:43;;;;;;;92.38;39.33;;;;;;;;;;5013096;28;20065;-59
2024/03/03 07:38:30;;;;;;;91.53;39.05;;;;;;;;;;5011735;28;20139;-57
2024/03/03 07:41:24;;;;;;;81.40;36.83;;;;;;;;;;5013795;28;20050;-58
2024/03/03 07:44:11;;;;;;;94.80;38.45;;;;;;;;;;5012240;28;20053;-58
2024/03/03 07:47:05;;;;;;;84.25;38.30;;;;;;;;;;5009036;28;20111;-56
2024/03/03 07:49:53;;;;;;;77.90;36.80;;;;;;;;;;5011942;28;20050;-58
2024/03/03 07:52:46;;;;;;;92.57;38.47;;;;;;;;;;5010194;28;20883;-63
2024/03/03 07:55:33;;;;;;;86.53;39.60;;;;;;;;;;5012275;28;20641;-63
2024/03/03 07:58:27;;;;;;;80.63;35.67;;;;;;;;;;5012613;28;20512;-63
2024/03/03 08:01:14;;;;;;;84.25;38.05;;;;;;;;;;5014807;28;20621;-65
2024/03/03 08:04:11;;;;;;;71.70;34.45;;;;;;;;;;5016473;28;20064;-67
2024/03/03 08:06:55;;;;;;;76.97;35.50;;;;;;;;;;5012329;28;20580;-65
2024/03/03 08:09:49;;;;;;;78.68;37.25;;;;;;;;;;5013538;28;20049;-67
2024/03/03 08:12:36;;;;;;;79.70;36.47;;;;;;;;;;5011381;28;20053;-67
2024/03/03 08:15:32;;;;;;;69.95;34.15;;;;;;;;;;5012237;28;20061;-65
2024/03/03 08:18:24;;;;;;;71.13;34.00;;;;;;;;;;5010434;28;20573;-65
2024/03/03 08:21:17;;;;;;;67.40;34.70;;;;;;;;;;5007738;28;20331;-59
2024/03/03 08:24:04;;;;;;;72.03;35.08;;;;;;;;;;5012778;28;20531;-58
2024/03/03 08:26:58;;;;;;;65.63;32.30;;;;;;;;;;5008723;28;20081;-59
2024/03/03 08:29:52;;;;;;;70.40;30.48;;;;;;;;;;5012470;28;20119;-65
2024/03/03 08:32:39;;;;;;;66.35;34.20;;;;;;;;;;5011509;28;20077;-62
2024/03/03 08:35:33;;;;;;;73.40;35.22;;;;;;;;;;5013905;28;20045;-63
2024/03/03 08:38:20;;;;;;;65.93;32.97;;;;;;;;;;5012770;28;20046;-62
2024/03/03 08:41:14;;;;;;;62.60;32.58;;;;;;;;;;5013753;28;20042;-62
2024/03/03 08:44:01;;;;;;;59.83;31.10;;;;;;;;;;5013027;28;20053;-62
2024/03/03 08:46:55;;;;;;;58.15;30.10;;;;;;;;;;5010928;28;20270;-63
2024/03/03 08:49:42;;;;;;;60.13;28.90;;;;;;;;;;5009706;28;20057;-63
2024/03/03 08:52:39;;;;;;;55.97;28.50;;;;;;;;;;5014163;28;20081;-62
2024/03/03 08:55:32;;;;;;;52.42;27.58;;;;;;;;;;5012369;28;20958;-62
2024/03/03 08:58:26;;;;;;;51.47;28.23;;;;;;;;;;5010493;28;20053;-65
2024/03/03 09:01:20;;;;;;;48.22;25.38;;;;;;;;;;5010558;28;20613;-49
2024/03/03 09:04:07;;;;;;;49.50;26.35;;;;;;;;;;5011061;28;20141;-50
2024/03/03 09:07:01;;;;;;;47.20;21.33;;;;;;;;;;5009059;28;20060;-48
2024/03/03 09:09:49;;;;;;;45.63;25.70;;;;;;;;;;5015020;28;20049;-49
2024/03/03 09:12:42;;;;;;;44.55;24.52;;;;;;;;;;5012162;28;20163;-51
2024/03/03 09:15:30;;;;;;;46.80;24.15;;;;;;;;;;5012811;28;20052;-64
2024/03/03 09:18:30;;;;;;;42.50;23.70;;;;;;;;;;5010859;28;20053;-64
2024/03/03 09:21:17;;;;;;;42.42;23.35;;;;;;;;;;5012042;28;20107;-64
2024/03/03 09:24:11;;;;;;;30.08;18.00;;;;;;;;;;5009256;28;20068;-63
2024/03/03 09:26:58;;;;;;;37.70;19.15;;;;;;;;;;5012125;28;20104;-65
2024/03/03 09:29:52;;;;;;;34.60;17.63;;;;;;;;;;5011511;28;20505;-52
2024/03/03 09:32:40;;;;;;;38.67;21.50;;;;;;;;;;5015024;28;20500;-48
2024/03/03 09:35:37;;;;;;;30.05;18.05;;;;;;;;;;5011454;28;20049;-48
2024/03/03 09:38:24;;;;;;;31.55;17.27;;;;;;;;;;5007287;28;20513;-50
2024/03/03 09:41:19;;;;;;;38.80;22.13;;;;;;;;;;5009743;28;20054;-50
2024/03/03 09:44:10;;;;;;;36.53;16.75;;;;;;;;;;5007958;28;20104;-59
2024/03/03 09:47:03;;;;;;;35.05;18.90;;;;;;;;;;5009670;28;20167;-59
2024/03/03 09:49:51;;;;;;;37.58;21.05;;;;;;;;;;5014634;28;20143;-63
2024/03/03 09:52:45;;;;;;;32.85;19.73;;;;;;;;;;5013365;28;20113;-59
2024/03/03 09:55:32;;;;;;;40.00;21.05;;;;;;;;;;5015578;28;20054;-62
2024/03/03 09:58:26;;;;;;;34.80;21.23;;;;;;;;;;5013787;28;20049;-64
2024/03/03 10:01:13;;;;;;;34.67;18.92;;;;;;;;;;5016516;28;20065;-63
2024/03/03 10:04:08;;;;;;;25.02;13.05;;;;;;;;;;5016106;28;20077;-63
2024/03/03 10:06:56;;;;;;;32.13;19.63;;;;;;;;;;5014618;28;20081;-64
2024/03/03 10:10:04;;;;;;;30.38;17.85;;;;;;;;;;5006567;28;20398;-63
2024/03/03 10:12:52;;;;;;;36.45;20.13;;;;;;;;;;5009564;28;20056;-65
2024/03/03 10:15:47;;;;;;;34.65;19.27;;;;;;;;;;5007725;28;20053;-64
2024/03/03 10:18:41;;;;;;;34.25;20.13;;;;;;;;;;5010403;28;20053;-66
2024/03/03 10:21:50;;;;;;;30.90;19.35;;;;;;;;;;5009856;28;20199;-65
2024/03/03 10:24:43;;;;;;;31.50;19.45;;;;;;;;;;5008626;28;22442;-56
2024/03/03 10:27:36;;;;;;;31.20;19.00;;;;;;;;;;5006981;28;20050;-61
2024/03/03 10:30:23;;;;;;;32.63;19.25;;;;;;;;;;5010140;28;20653;-60
2024/03/03 10:33:18;;;;;;;30.13;18.48;;;;;;;;;;5011510;28;20072;-59
2024/03/03 10:36:06;;;;;;;32.45;20.48;;;;;;;;;;5013128;28;20061;-58
2024/03/03 10:38:59;;;;;;;29.20;19.58;;;;;;;;;;5010997;28;20057;-59
2024/03/03 10:41:46;;;;;;;30.45;18.85;;;;;;;;;;5009893;28;20056;-59
2024/03/03 10:44:40;;;;;;;27.50;16.48;;;;;;;;;;5012823;28;20056;-65
2024/03/03 10:47:28;;;;;;;29.73;18.95;;;;;;;;;;5005962;28;20103;-66
2024/03/03 10:50:23;;;;;;;30.65;18.55;;;;;;;;;;5008357;28;20058;-65
2024/03/03 10:53:12;;;;;;;32.92;18.45;;;;;;;;;;5008878;28;20135;-65
2024/03/03 10:56:05;;;;;;;37.40;18.92;;;;;;;;;;5003536;28;20086;-65
2024/03/03 10:58:54;;;;;;;32.92;18.88;;;;;;;;;;5010510;28;20119;-65
2024/03/03 11:01:46;;;;;;;28.33;16.60;;;;;;;;;;5010283;28;21364;-59
2024/03/03 11:04:34;;;;;;;31.50;18.10;;;;;;;;;;5012060;28;20243;-66
2024/03/03 11:07:29;;;;;;;28.80;18.85;;;;;;;;;;5011588;28;20742;-67
2024/03/03 11:10:15;;;;;;;31.00;19.85;;;;;;;;;;5008040;28;20058;-65
2024/03/03 11:13:11;;;;;;;30.75;18.92;;;;;;;;;;5010093;28;20058;-65
2024/03/03 11:16:03;;;;;;;32.38;19.80;;;;;;;;;;5011277;28;20053;-65
2024/03/03 11:19:05;;;;;;;31.17;19.77;;;;;;;;;;5012022;28;20090;-46
2024/03/03 11:22:03;;;;;;;30.58;19.27;;;;;;;;;;5010305;28;20108;-46
2024/03/03 11:24:58;;;;;;;30.27;19.02;;;;;;;;;;5012033;28;20079;-48
2024/03/03 11:27:50;;;;;;;29.85;18.02;;;;;;;;;;5008463;28;20058;-53
2024/03/03 11:30:44;;;;;;;27.48;16.25;;;;;;;;;;5010979;28;20108;-52
2024/03/03 11:33:32;;;;;;;28.08;17.77;;;;;;;;;;5008325;28;20132;-50
2024/03/03 11:36:26;;;;;;;30.50;19.80;;;;;;;;;;5011337;28;20058;-48
2024/03/03 11:39:17;;;;;;;29.60;19.65;;;;;;;;;;5005304;28;20075;-47
2024/03/03 11:42:33;;;;;;;30.63;20.58;;;;;;;;;;5008932;28;20057;-49
2024/03/03 11:45:45;;;;;;;29.83;19.08;;;;;;;;;;5008966;28;20068;-48
2024/03/03 11:48:42;;;;;;;28.73;18.52;;;;;;;;;;5009360;28;20396;-63
2024/03/03 11:51:29;;;;;;;34.38;21.48;;;;;;;;;;5007796;28;20121;-62
2024/03/03 11:54:37;;;;;;;32.72;20.70;;;;;;;;;;5010707;28;20057;-64
2024/03/03 11:57:31;;;;;;;36.35;21.23;;;;;;;;;;5008437;28;20398;-66
2024/03/03 12:00:24;;;;;;;35.40;20.48;;;;;;;;;;5005367;28;20120;-52
2024/03/03 12:03:11;;;;;;;29.90;19.65;;;;;;;;;;5010013;28;20062;-51
2024/03/03 12:06:06;;;;;;;32.72;20.48;;;;;;;;;;5007581;28;20053;-50
2024/03/03 12:08:56;;;;;;;35.83;22.00;;;;;;;;;;5009490;28;20049;-52
2024/03/03 12:11:52;;;;;;;35.15;21.88;;;;;;;;;;5008578;28;20066;-51
2024/03/03 12:14:38;;;;;;;34.92;19.60;;;;;;;;;;5010171;28;20081;-58
2024/03/03 12:17:39;;;;;;;35.38;21.05;;;;;;;;;;5010618;28;20053;-58
2024/03/03 12:20:34;;;;;;;30.50;19.90;;;;;;;;;;5010612;28;20797;-59
2024/03/03 12:23:27;;;;;;;34.40;22.15;;;;;;;;;;5009448;28;20326;-59
2024/03/03 12:26:20;;;;;;;32.85;21.05;;;;;;;;;;5009032;28;20056;-61
2024/03/03 12:29:08;;;;;;;34.80;21.83;;;;;;;;;;5004005;28;20166;-59
2024/03/03 12:32:04;;;;;;;32.28;20.30;;;;;;;;;;5010415;28;20072;-59
2024/03/03 12:34:49;;;;;;;34.40;21.70;;;;;;;;;;5004920;28;20139;-57
2024/03/03 12:37:43;;;;;;;33.88;21.80;;;;;;;;;;5011489;28;20122;-57
2024/03/03 12:40:37;;;;;;;33.97;21.52;;;;;;;;;;5010081;28;20159;-59
2024/03/03 12:43:26;;;;;;;37.90;22.10;;;;;;;;;;5010130;28;20061;-66
2024/03/03 12:46:18;;;;;;;36.33;22.80;;;;;;;;;;5009385;28;20593;-65
2024/03/03 12:49:05;;;;;;;35.22;22.45;;;;;;;;;;5005500;28;20045;-65
2024/03/03 12:51:59;;;;;;;36.55;23.80;;;;;;;;;;5009486;28;20644;-66
2024/03/03 12:54:48;;;;;;;37.42;23.13;;;;;;;;;;5009904;28;20664;-64
2024/03/03 12:57:43;;;;;;;38.33;23.98;;;;;;;;;;5006323;28;20045;-63
2024/03/03 13:00:30;;;;;;;36.58;23.25;;;;;;;;;;5005458;28;20061;-63
2024/03/03 13:03:25;;;;;;;39.35;23.85;;;;;;;;;;5005817;28;20747;-63
2024/03/03 13:06:14;;;;;;;40.47;23.85;;;;;;;;;;5008302;28;20415;-63
2024/03/03 13:09:13;;;;;;;39.20;25.25;;;;;;;;;;5008489;28;20065;-63
2024/03/03 13:12:05;;;;;;;38.33;23.77;;;;;;;;;;5004401;28;20058;-61
2024/03/03 13:14:53;;;;;;;40.17;26.13;;;;;;;;;;5007705;28;20578;-64
2024/03/03 13:18:11;;;;;;;41.63;24.83;;;;;;;;;;5005572;28;20123;-65
2024/03/03 13:21:19;;;;;;;39.03;24.27;;;;;;;;;;5007597;28;20065;-64
2024/03/03 13:24:20;;;;;;;47.95;25.92;;;;;;;;;;5011649;28;20107;-64
2024/03/03 13:27:14;;;;;;;41.17;25.23;;;;;;;;;;5019936;28;20603;-64
2024/03/03 13:30:06;;;;;;;41.15;26.77;;;;;;;;;;5011656;28;20579;-64
2024/03/03 13:32:58;;;;;;;46.10;26.85;;;;;;;;;;5011984;28;20053;-64
2024/03/03 13:35:49;;;;;;;42.92;26.33;;;;;;;;;;5010189;28;20064;-64
2024/03/03 13:38:42;;;;;;;37.92;25.98;;;;;;;;;;4997857;28;20061;-65
2024/03/03 13:41:29;;;;;;;47.58;27.60;;;;;;;;;;4999280;28;20517;-65
2024/03/03 13:44:23;;;;;;;45.20;26.85;;;;;;;;;;5012878;28;20062;-65
2024/03/03 13:47:12;;;;;;;44.80;27.13;;;;;;;;;;5014523;28;20054;-65
2024/03/03 13:50:08;;;;;;;42.67;27.30;;;;;;;;;;5012083;28;20345;-64
2024/03/03 13:52:53;;;;;;;44.15;27.67;;;;;;;;;;5014653;28;20057;-64
2024/03/03 13:55:47;;;;;;;43.80;26.83;;;;;;;;;;5012529;28;20468;-65
2024/03/03 13:58:34;;;;;;;39.67;27.27;;;;;;;;;;5007848;28;20053;-63
2024/03/03 14:01:28;;;;;;;46.80;27.88;;;;;;;;;;5014118;28;20050;-63
2024/03/03 14:04:15;;;;;;;44.20;26.98;;;;;;;;;;5012567;28;22190;-63
2024/03/03 14:07:09;;;;;;;47.85;27.48;;;;;;;;;;5013975;28;20050;-63
2024/03/03 14:09:56;;;;;;;40.70;27.33;;;;;;;;;;5014593;28;20528;-63
2024/03/03 14:12:53;;;;;;;46.00;29.25;;;;;;;;;;5014855;28;20055;-60
2024/03/03 14:15:40;;;;;;;48.67;30.13;;;;;;;;;;5014845;28;20298;-60
2024/03/03 14:18:41;;;;;;;49.80;29.23;;;;;;;;;;5010536;28;20081;-59
2024/03/03 14:21:32;;;;;;;51.70;29.10;;;;;;;;;;5015017;28;20061;-59
2024/03/03 14:24:26;;;;;;;52.15;30.40;;;;;;;;;;5017716;28;20393;-58
2024/03/03 14:27:13;;;;;;;54.15;31.55;;;;;;;;;;5011274;28;20390;-64
2024/03/03 14:30:07;;;;;;;55.85;30.83;;;;;;;;;;5014013;28;20057;-64
2024/03/03 14:32:54;;;;;;;50.53;31.75;;;;;;;;;;5010959;28;20304;-64
2024/03/03 14:35:48;;;;;;;52.22;31.27;;;;;;;;;;5008502;28;20189;-64
2024/03/03 14:38:36;;;;;;;61.22;34.28;;;;;;;;;;5011240;28;20061;-63
2024/03/03 14:41:29;;;;;;;61.72;33.33;;;;;;;;;;5013888;28;20053;-64
2024/03/03 14:44:16;;;;;;;63.40;36.22;;;;;;;;;;5010946;28;20061;-65
2024/03/03 14:47:10;;;;;;;58.65;36.38;;;;;;;;;;5012320;28;20123;-65
2024/03/03 14:49:58;;;;;;;62.67;39.28;;;;;;;;;;5013987;28;20049;-64
2024/03/03 14:52:51;;;;;;;70.57;38.70;;;;;;;;;;5010024;28;20175;-65
2024/03/03 14:55:38;;;;;;;78.95;40.08;;;;;;;;;;5009728;28;20050;-56
2024/03/03 14:58:32;;;;;;;72.32;38.60;;;;;;;;;;5008539;28;20733;-59
2024/03/03 15:01:19;;;;;;;68.97;38.25;;;;;;;;;;5009221;28;20116;-59
2024/03/03 15:04:13;;;;;;;70.65;41.25;;;;;;;;;;5003418;28;20554;-54
2024/03/03 15:07:10;;;;;;;77.13;43.22;;;;;;;;;;5009656;28;20061;-65
2024/03/03 15:10:01;;;;;;;79.10;46.78;;;;;;;;;;5012567;28;20061;-63
2024/03/03 15:12:48;;;;;;;72.78;44.78;;;;;;;;;;5011270;28;20140;-61
2024/03/03 15:15:42;;;;;;;74.60;42.83;;;;;;;;;;5014250;28;20100;-62
2024/03/03 15:18:36;;;;;;;76.00;42.10;;;;;;;;;;5013436;28;20057;-62
2024/03/03 15:21:30;;;;;;;73.22;43.90;;;;;;;;;;5013342;28;20143;-62
2024/03/03 15:24:18;;;;;;;71.80;39.85;;;;;;;;;;5007564;28;20045;-62
2024/03/03 15:27:11;;;;;;;72.18;41.25;;;;;;;;;;5010800;28;20060;-61
2024/03/03 15:29:58;;;;;;;75.47;41.35;;;;;;;;;;5007163;28;20066;-61
2024/03/03 15:32:52;;;;;;;68.57;40.90;;;;;;;;;;5009933;28;20046;-62
2024/03/03 15:35:39;;;;;;;75.60;43.17;;;;;;;;;;5009962;28;20513;-59
2024/03/03 15:38:33;;;;;;;80.22;46.17;;;;;;;;;;5010736;28;20104;-62
2024/03/03 15:41:27;;;;;;;80.45;44.60;;;;;;;;;;5009847;28;20127;-63
2024/03/03 15:44:22;;;;;;;75.95;43.78;;;;;;;;;;5009192;28;20085;-62
2024/03/03 15:47:15;;;;;;;74.22;42.90;;;;;;;;;;5009478;28;20509;-62
2024/03/03 15:50:02;;;;;;;69.45;41.75;;;;;;;;;;5010961;28;20247;-62
2024/03/03 15:52:56;;;;;;;79.95;43.47;;;;;;;;;;5011951;28;20076;-61
2024/03/03 15:55:43;;;;;;;74.68;41.33;;;;;;;;;;5008837;28;20068;-61
2024/03/03 15:58:37;;;;;;;72.25;39.28;;;;;;;;;;5006066;28;20112;-62
2024/03/03 16:01:24;;;;;;;63.60;37.65;;;;;;;;;;5009161;28;20065;-61
2024/03/03 16:04:20;;;;;;;65.10;36.45;;;;;;;;;;5008470;28;20188;-63
2024/03/03 16:07:05;;;;;;;67.60;37.88;;;;;;;;;;5007978;28;20115;-63
2024/03/03 16:10:02;;;;;;;64.65;37.00;;;;;;;;;;5010238;28;20068;-63
2024/03/03 16:12:49;;;;;;;70.60;37.03;;;;;;;;;;5009871;28;20139;-62
2024/03/03 16:15:43;;;;;;;72.60;37.28;;;;;;;;;;5010547;28;20108;-63
2024/03/03 16:18:50;;;;;;;64.45;37.65;;;;;;;;;;5006076;28;20076;-63
2024/03/03 16:21:45;;;;;;;75.00;39.38;;;;;;;;;;5008177;28;20508;-63
2024/03/03 16:24:38;;;;;;;72.05;38.03;;;;;;;;;;5004161;28;20398;-62
2024/03/03 16:27:25;;;;;;;76.45;39.70;;;;;;;;;;5007253;28;20053;-62